Detall de PIREP

Printer-friendly versionPDF version

[2014/02/05 08:34:00]
Flight IATA:CT2104
Pilot Number:041
Company ICAO:CAT
Aircraft Type:BE20/A
PAX:4
Departing Airport: LEVC
Destination Airport: LEBB
Alternate Airport:LEBL
Online: VATSIM
Route:CENTA A33 CJN R10 PPN G23 CEGAM
Flight Level:FL130
No Slew and time accel
No pause
Crash detect
Detect pilot in Cockpit between each 30 and 45 minutes
08:34 Zero fuel Weight: 8737 Lbs, Fuel Weight: 3677 Lbs
08:34 VATSIM:LEVC 050800Z 27010G20KT 240V300 9999 FEW030 16/08 Q1005 WS ALL RWY NOSIG
08:34 VATSIM:LEBB 050800Z 00000KT 9999 FEW027 SCT068 08/04 Q1002 TEMPO SHRA SCT025CB
08:34 VOICE CATALONIAN
08:43 Parking Brakes off
08:48 Take-off
08:48 Take off Weight: 12375 Lbs
08:48 Wind: 269º @ 021 Knots Heading: 294º
08:48 POS N39º 29´ 21´´ W000º 28´ 53´´
08:48 Flaps:1 at 145 Knots
08:48 Gear Up: 146 Knots
08:49 Flaps:0 at 139 Knots
09:00 TOC
09:00 Fuel Weight: 3468 Lb
09:03 Wind:290º@026 Knots Heading: 297º Ground Speed: 219 Knots Altitude 12814 ft
09:15 TOD
09:15 Fuel Weight: 3287 Lb
09:18 Wind:133º@027 Knots Heading: 351º Ground Speed: 280 Knots Altitude 11784 ft
09:33 Wind:133º@027 Knots Heading: 036º Ground Speed: 250 Knots Altitude 11742 ft
09:48 Wind:133º@027 Knots Heading: 036º Ground Speed: 251 Knots Altitude 11742 ft
10:03 Wind:167º@026 Knots Heading: 292º Ground Speed: 197 Knots Altitude 6151 ft
10:05 Flaps:1 at 175 Knots
10:06 Gear Down: 134 Knots
10:07 Flaps:2 at 130 Knots
10:11 TouchDown:Rate -99 ft/min Speed: 100 Knots
10:11 Flaps:0 at 94 Knots
10:12 VATSIM:LEBB 051000Z 29003KT 240V340 9999 FEW055 13/01 Q1004 NOSIG
10:12 Land
10:12 Wind:247º@005 Knots
10:12 Heading: 296º
10:12 Flight Duration: 01:24
10:12 Landing Weight: 11445 Lbs
10:12 POS N43º 18´ 09´´ W002º 54´ 54´´
10:16 Parking brakes on
10:16 Block to Block Duration: 01:33
10:16 Final Fuel: 2694 Lbls
10:16 Spent Fuel: 983 Lbls
10:16 Flight Length: 322 NM
10:16 TOD Land Length: 224 NM

Exportar CSV

Powered by Drupal - Modified by Danger4k